createdAt,value
2022-11-23T00:01:30.728Z,87.90
2022-11-23T00:03:58.654Z,87.90
2022-11-23T00:06:25.465Z,88.20
2022-11-23T00:08:52.234Z,88.00
2022-11-23T00:11:19.457Z,88.20
2022-11-23T00:13:46.434Z,88.00
2022-11-23T00:16:20.773Z,88.20
2022-11-23T00:18:47.502Z,88.30
2022-11-23T00:21:15.698Z,88.20
2022-11-23T00:23:42.323Z,88.60
2022-11-23T00:26:10.128Z,88.40
2022-11-23T00:28:36.783Z,88.40
2022-11-23T00:31:03.484Z,88.60
2022-11-23T00:33:30.140Z,88.60
2022-11-23T00:36:03.813Z,88.80
2022-11-23T00:38:30.536Z,88.70
2022-11-23T00:41:24.209Z,88.70
2022-11-23T00:43:50.857Z,88.70
2022-11-23T00:46:24.758Z,88.80
2022-11-23T00:48:52.722Z,88.60
2022-11-23T00:51:21.155Z,88.70
2022-11-23T00:53:47.801Z,88.70
2022-11-23T00:56:14.450Z,88.50
2022-11-23T00:58:41.334Z,88.30
2022-11-23T01:01:10.346Z,88.40
2022-11-23T01:03:38.761Z,88.50
2022-11-23T01:06:09.990Z,88.40
2022-11-23T01:08:37.002Z,88.20
2022-11-23T01:11:11.272Z,88.50
2022-11-23T01:13:41.406Z,88.90
2022-11-23T01:16:10.405Z,88.80
2022-11-23T01:18:37.052Z,88.90
2022-11-23T01:21:03.792Z,88.80
2022-11-23T01:23:30.403Z,88.70
2022-11-23T01:25:57.370Z,88.90
2022-11-23T01:28:24.385Z,89.00
2022-11-23T01:30:51.016Z,89.00
2022-11-23T01:33:17.708Z,89.10
2022-11-23T01:35:44.285Z,89.10
2022-11-23T01:38:16.661Z,89.10
2022-11-23T01:40:44.769Z,89.20
2022-11-23T01:43:15.143Z,89.20
2022-11-23T01:45:53.714Z,89.40
2022-11-23T01:48:22.390Z,89.30
2022-11-23T01:50:50.104Z,89.40
2022-11-23T01:53:16.744Z,89.50
2022-11-23T01:55:44.415Z,89.60
2022-11-23T01:58:11.070Z,89.50
2022-11-23T02:03:19.873Z,89.50
2022-11-23T02:05:54.689Z,89.50
2022-11-23T02:08:21.357Z,89.40
2022-11-23T02:10:48.106Z,89.30
2022-11-23T02:13:14.742Z,89.10
2022-11-23T02:15:41.397Z,89.00
2022-11-23T02:18:12.691Z,88.80
2022-11-23T02:20:39.450Z,88.50
2022-11-23T02:23:27.717Z,88.60
2022-11-23T02:26:26.553Z,88.20
2022-11-23T02:29:02.632Z,88.00
2022-11-23T02:34:13.312Z,88.00
2022-11-23T02:36:43.934Z,88.00
2022-11-23T02:39:37.202Z,87.80
2022-11-23T02:42:04.496Z,87.40
2022-11-23T02:44:58.969Z,87.40
2022-11-23T02:47:25.715Z,87.40
2022-11-23T02:49:52.377Z,87.40
2022-11-23T02:52:19.110Z,87.30
2022-11-23T02:54:45.761Z,87.20
2022-11-23T02:57:12.423Z,87.30
2022-11-23T02:59:39.212Z,87.00
2022-11-23T03:02:06.115Z,87.20
2022-11-23T03:04:32.812Z,87.10
2022-11-23T03:06:59.510Z,87.10
2022-11-23T03:09:26.230Z,87.00
2022-11-23T03:11:53.753Z,86.80
2022-11-23T03:14:20.428Z,86.70
2022-11-23T03:16:47.083Z,86.80
2022-11-23T03:19:13.764Z,86.70
2022-11-23T03:21:40.360Z,86.60
2022-11-23T03:24:07.081Z,86.50
2022-11-23T03:26:33.966Z,86.20
2022-11-23T03:29:00.718Z,86.30
2022-11-23T03:31:27.732Z,86.30
2022-11-23T03:33:54.331Z,86.10
2022-11-23T03:36:21.026Z,85.80
2022-11-23T03:38:47.716Z,85.70
2022-11-23T03:41:14.367Z,85.70
2022-11-23T03:43:41.091Z,85.60
2022-11-23T03:46:07.741Z,85.00
2022-11-23T03:48:34.358Z,84.40
2022-11-23T03:51:01.036Z,84.90
2022-11-23T03:53:27.637Z,84.50
2022-11-23T03:55:54.297Z,84.70
2022-11-23T03:58:20.915Z,84.50
2022-11-23T04:00:47.520Z,84.70
2022-11-23T04:03:14.196Z,84.70
2022-11-23T04:05:40.845Z,84.70
2022-11-23T04:08:07.484Z,84.50
2022-11-23T04:10:35.252Z,84.50
2022-11-23T04:13:01.911Z,84.60
2022-11-23T04:15:28.600Z,84.70
2022-11-23T04:17:55.476Z,84.70
2022-11-23T04:20:22.074Z,84.60
2022-11-23T04:22:48.692Z,84.70
2022-11-23T04:25:15.387Z,84.70
2022-11-23T04:27:42.026Z,84.70
2022-11-23T04:30:09.279Z,84.60
2022-11-23T04:32:35.942Z,84.60
2022-11-23T04:35:02.692Z,84.60
2022-11-23T04:37:29.308Z,84.60
2022-11-23T04:39:55.960Z,84.50
2022-11-23T04:42:22.650Z,84.50
2022-11-23T04:44:49.375Z,84.50
2022-11-23T04:47:16.024Z,84.50
2022-11-23T04:49:42.690Z,84.40
2022-11-23T04:52:09.304Z,84.40
2022-11-23T04:54:36.017Z,84.30
2022-11-23T04:57:02.622Z,84.30
2022-11-23T04:59:29.484Z,84.30
2022-11-23T05:01:56.274Z,84.20
2022-11-23T05:04:22.856Z,84.20
2022-11-23T05:06:49.522Z,84.20
2022-11-23T05:09:16.183Z,84.20
2022-11-23T05:11:42.869Z,84.00
2022-11-23T05:14:09.512Z,84.10
2022-11-23T05:16:36.127Z,84.10
2022-11-23T05:19:02.730Z,84.10
2022-11-23T05:21:29.365Z,84.10
2022-11-23T05:23:56.096Z,84.00
2022-11-23T05:26:22.748Z,84.00
2022-11-23T05:28:49.367Z,83.90
2022-11-23T05:31:16.094Z,83.90
2022-11-23T05:33:42.878Z,83.70
2022-11-23T05:36:09.734Z,83.70
2022-11-23T05:38:36.395Z,83.70
2022-11-23T05:41:03.031Z,83.60
2022-11-23T05:43:29.635Z,83.50
2022-11-23T05:45:59.158Z,83.30
2022-11-23T05:48:25.911Z,83.30
2022-11-23T05:50:52.580Z,83.10
2022-11-23T05:53:19.196Z,83.20
2022-11-23T05:55:45.825Z,83.10
2022-11-23T05:58:12.441Z,83.00
2022-11-23T06:00:39.141Z,83.10
2022-11-23T06:03:05.843Z,83.10
2022-11-23T06:05:32.459Z,83.10
2022-11-23T06:07:59.185Z,83.10
2022-11-23T06:10:25.948Z,83.20
2022-11-23T06:12:52.740Z,83.30
2022-11-23T06:15:19.462Z,83.30
2022-11-23T06:17:46.092Z,83.40
2022-11-23T06:20:12.796Z,83.40
2022-11-23T06:22:39.482Z,83.40
2022-11-23T06:25:07.830Z,83.60
2022-11-23T06:27:34.615Z,83.80
2022-11-23T06:30:01.407Z,83.80
2022-11-23T06:32:28.018Z,83.90
2022-11-23T06:34:59.357Z,84.20
2022-11-23T06:37:27.582Z,84.40
2022-11-23T06:39:54.178Z,84.50
2022-11-23T06:42:38.480Z,84.70
2022-11-23T06:45:07.078Z,85.00
2022-11-23T06:47:33.904Z,85.10
2022-11-23T06:50:00.736Z,85.20
2022-11-23T06:52:27.435Z,85.40
2022-11-23T06:54:54.057Z,85.70
2022-11-23T06:57:20.745Z,85.80
2022-11-23T06:59:47.398Z,86.10
2022-11-23T07:02:14.045Z,85.90
2022-11-23T07:04:40.655Z,86.00
2022-11-23T07:07:10.267Z,86.10
2022-11-23T07:09:37.029Z,86.10
2022-11-23T07:12:03.801Z,86.20
2022-11-23T07:14:30.467Z,86.50
2022-11-23T07:16:57.174Z,86.50
2022-11-23T07:19:23.778Z,86.50
2022-11-23T07:21:50.413Z,86.40
2022-11-23T07:24:17.108Z,86.40
2022-11-23T07:26:43.967Z,86.30
2022-11-23T07:29:13.627Z,86.20
2022-11-23T07:31:40.223Z,86.10
2022-11-23T07:34:06.966Z,86.00
2022-11-23T07:36:33.651Z,85.90
2022-11-23T07:39:00.343Z,86.00
2022-11-23T07:41:27.071Z,85.90
2022-11-23T07:43:56.923Z,86.00
2022-11-23T07:46:23.596Z,85.70
2022-11-23T07:48:50.378Z,85.10
2022-11-23T07:51:17.044Z,85.30
2022-11-23T07:53:43.757Z,85.10
2022-11-23T07:56:11.487Z,85.00
2022-11-23T07:58:38.374Z,84.90
2022-11-23T08:01:06.190Z,84.50
2022-11-23T08:03:32.991Z,84.40
2022-11-23T08:05:59.664Z,84.20
2022-11-23T08:08:26.324Z,84.20
2022-11-23T08:10:54.474Z,84.00
2022-11-23T08:13:22.103Z,83.90
2022-11-23T08:15:54.449Z,83.70
2022-11-23T08:18:22.563Z,83.90
2022-11-23T08:20:49.231Z,83.90
2022-11-23T08:23:15.929Z,83.80
2022-11-23T08:25:42.689Z,83.90
2022-11-23T08:28:09.410Z,83.90
2022-11-23T08:30:36.250Z,83.70
2022-11-23T08:33:04.205Z,83.70
2022-11-23T08:35:30.912Z,83.70
2022-11-23T08:37:57.656Z,83.60
2022-11-23T08:40:25.841Z,83.50
2022-11-23T08:42:52.662Z,83.40
2022-11-23T08:45:19.344Z,83.30
2022-11-23T08:47:46.083Z,83.20
2022-11-23T08:50:13.132Z,83.20
2022-11-23T08:52:39.993Z,83.00
2022-11-23T08:55:06.947Z,83.10
2022-11-23T08:57:33.664Z,83.10
2022-11-23T09:00:00.468Z,82.90
2022-11-23T09:02:27.205Z,82.80
2022-11-23T09:04:53.869Z,82.70
2022-11-23T09:07:20.933Z,82.50
2022-11-23T09:09:47.736Z,82.30
2022-11-23T09:12:14.377Z,82.50
2022-11-23T09:14:41.273Z,82.60
2022-11-23T09:17:07.944Z,82.40
2022-11-23T09:19:34.779Z,82.40
2022-11-23T09:22:01.490Z,82.30
2022-11-23T09:24:28.241Z,82.20
2022-11-23T09:26:55.119Z,82.00
2022-11-23T09:29:21.853Z,81.80
2022-11-23T09:31:48.484Z,82.00
2022-11-23T09:34:15.410Z,81.80
2022-11-23T09:36:42.136Z,81.40
2022-11-23T09:39:08.994Z,81.50
2022-11-23T09:42:00.673Z,81.30
2022-11-23T09:44:43.706Z,81.10
2022-11-23T09:47:29.866Z,82.10
2022-11-23T09:50:01.663Z,80.80
2022-11-23T09:52:28.758Z,80.70
2022-11-23T09:54:58.126Z,79.80
2022-11-23T09:57:26.313Z,79.50
2022-11-23T10:00:05.035Z,79.40
2022-11-23T10:02:33.869Z,79.70
2022-11-23T10:05:00.621Z,79.70
2022-11-23T10:07:39.913Z,79.40
2022-11-23T10:10:21.301Z,79.90
2022-11-23T10:12:54.458Z,80.00
2022-11-23T10:15:32.421Z,80.00
2022-11-23T10:18:22.249Z,79.40
2022-11-23T10:21:10.591Z,79.30
2022-11-23T10:23:51.511Z,79.70
2022-11-23T10:26:18.850Z,78.10
2022-11-23T10:28:46.524Z,76.80
2022-11-23T10:31:15.720Z,78.90
2022-11-23T10:34:02.332Z,78.70
2022-11-23T10:36:29.033Z,76.70
2022-11-23T10:38:58.528Z,75.60
2022-11-23T10:41:25.397Z,74.60
2022-11-23T10:44:05.752Z,73.90
2022-11-23T10:46:39.149Z,72.70
2022-11-23T10:49:21.763Z,71.60
2022-11-23T10:51:55.139Z,69.60
2022-11-23T10:54:49.554Z,69.70
2022-11-23T10:57:28.041Z,67.30
2022-11-23T11:00:02.809Z,66.00
2022-11-23T11:02:29.521Z,65.50
2022-11-23T11:05:31.382Z,65.00
2022-11-23T11:08:35.609Z,62.20
2022-11-23T11:11:08.579Z,60.00
2022-11-23T11:13:44.897Z,62.30
2022-11-23T11:16:22.334Z,60.70
2022-11-23T11:18:49.070Z,59.20
2022-11-23T11:21:23.862Z,58.80
2022-11-23T11:23:53.280Z,59.30
2022-11-23T11:26:22.265Z,58.80
2022-11-23T11:28:50.444Z,57.80
2022-11-23T11:31:34.779Z,56.70
2022-11-23T11:34:26.764Z,55.70
2022-11-23T11:37:04.591Z,56.20
2022-11-23T11:39:54.580Z,57.40
2022-11-23T11:42:42.099Z,58.10
2022-11-23T11:45:31.842Z,59.30
2022-11-23T11:48:04.967Z,60.30
2022-11-23T11:50:53.023Z,60.70
2022-11-23T11:53:23.207Z,61.50
2022-11-23T11:56:02.825Z,61.70
2022-11-23T11:58:29.552Z,61.90
2022-11-23T12:01:11.755Z,61.90
2022-11-23T12:03:43.930Z,62.00
2022-11-23T12:06:26.865Z,62.70
2022-11-23T12:09:17.580Z,62.80
2022-11-23T12:11:44.365Z,63.50
2022-11-23T12:14:14.551Z,63.90
2022-11-23T12:17:31.547Z,64.10
2022-11-23T12:20:17.775Z,64.40
2022-11-23T12:22:44.405Z,65.00
2022-11-23T12:25:11.032Z,65.50
2022-11-23T12:27:48.947Z,65.90
2022-11-23T12:30:21.951Z,66.10
2022-11-23T12:33:19.416Z,66.50
2022-11-23T12:36:05.012Z,66.90
2022-11-23T12:38:41.194Z,67.30
2022-11-23T12:41:20.725Z,67.80
2022-11-23T12:44:19.473Z,68.90
2022-11-23T12:46:55.700Z,69.80
2022-11-23T12:49:43.983Z,71.00
2022-11-23T12:52:13.476Z,73.20
2022-11-23T12:55:21.049Z,73.60
2022-11-23T12:58:22.594Z,73.70
2022-11-23T13:01:11.800Z,73.40
2022-11-23T13:03:54.775Z,74.20
2022-11-23T13:07:12.317Z,74.70
2022-11-23T13:09:41.285Z,76.20
2022-11-23T13:12:26.766Z,76.20
2022-11-23T13:15:16.093Z,76.10
2022-11-23T13:17:58.440Z,76.50
2022-11-23T13:20:29.435Z,76.80
2022-11-23T13:22:56.974Z,77.20
2022-11-23T13:25:29.683Z,77.80
2022-11-23T13:28:04.094Z,78.50
2022-11-23T13:30:52.348Z,79.00
2022-11-23T13:33:28.397Z,79.70
2022-11-23T13:36:02.118Z,80.00
2022-11-23T13:38:42.447Z,80.50
2022-11-23T13:41:34.063Z,81.00
2022-11-23T13:44:20.680Z,81.40
2022-11-23T13:47:00.321Z,81.80
2022-11-23T13:49:54.865Z,81.60
2022-11-23T13:52:21.751Z,81.80
2022-11-23T13:55:20.797Z,82.30
2022-11-23T13:58:22.465Z,82.50
2022-11-23T14:01:01.815Z,83.40
2022-11-23T14:03:47.034Z,82.80
2022-11-23T14:06:39.240Z,83.00
2022-11-23T14:09:30.308Z,83.10
2022-11-23T14:12:07.375Z,83.50
2022-11-23T14:14:50.990Z,83.70
2022-11-23T14:17:23.540Z,84.10
2022-11-23T14:20:11.912Z,84.10
2022-11-23T14:22:56.995Z,84.20
2022-11-23T14:25:47.278Z,84.70
2022-11-23T14:28:29.268Z,84.20
2022-11-23T14:31:12.522Z,84.20
2022-11-23T14:33:48.622Z,84.50
2022-11-23T14:36:18.611Z,84.30
2022-11-23T14:38:51.144Z,84.60
2022-11-23T14:41:28.890Z,84.60
2022-11-23T14:43:57.052Z,84.80
2022-11-23T14:46:26.240Z,85.00
2022-11-23T14:48:57.493Z,85.00
2022-11-23T14:51:25.582Z,85.10
2022-11-23T14:53:54.118Z,85.20
2022-11-23T14:56:29.495Z,85.50
2022-11-23T14:59:17.814Z,85.30
2022-11-23T15:01:51.356Z,85.60
2022-11-23T15:04:34.061Z,85.90
2022-11-23T15:07:17.816Z,86.00
2022-11-23T15:10:32.509Z,85.80
2022-11-23T15:13:01.918Z,86.30
2022-11-23T15:15:32.003Z,86.10
2022-11-23T15:21:27.980Z,86.00
2022-11-23T15:23:55.747Z,85.70
2022-11-23T15:29:55.006Z,85.90
2022-11-23T15:32:31.973Z,85.90
2022-11-23T15:35:01.875Z,85.80
2022-11-23T15:37:28.608Z,85.90
2022-11-23T15:39:55.645Z,86.00
2022-11-23T15:42:24.037Z,86.00
2022-11-23T15:44:52.965Z,86.10
2022-11-23T15:47:26.158Z,85.90
2022-11-23T15:50:02.701Z,85.90
2022-11-23T15:52:33.657Z,86.10
2022-11-23T15:55:08.783Z,86.20
2022-11-23T15:57:36.209Z,86.40
2022-11-23T16:00:03.939Z,86.40
2022-11-23T16:02:30.947Z,86.40
2022-11-23T16:05:09.674Z,86.40
2022-11-23T16:07:57.684Z,86.30
2022-11-23T16:10:34.291Z,86.50
2022-11-23T16:13:01.997Z,86.40
2022-11-23T16:15:34.850Z,86.60
2022-11-23T16:18:01.713Z,86.50
2022-11-23T16:20:28.628Z,86.50
2022-11-23T16:22:55.878Z,86.40
2022-11-23T16:25:34.818Z,86.80
2022-11-23T16:28:06.624Z,86.70
2022-11-23T16:30:38.569Z,86.70
2022-11-23T16:33:06.862Z,86.80
2022-11-23T16:35:33.594Z,86.90
2022-11-23T16:38:00.607Z,86.80
2022-11-23T16:40:27.422Z,86.90
2022-11-23T16:42:54.232Z,86.90
2022-11-23T16:45:21.606Z,87.00
2022-11-23T16:47:55.700Z,87.10
2022-11-23T16:50:23.315Z,87.00
2022-11-23T16:52:50.517Z,87.20
2022-11-23T16:55:17.449Z,87.00
2022-11-23T16:57:44.442Z,87.00
2022-11-23T17:00:18.930Z,87.10
2022-11-23T17:02:45.755Z,86.90
2022-11-23T17:05:20.240Z,87.30
2022-11-23T17:07:47.243Z,87.00
2022-11-23T17:10:15.115Z,86.90
2022-11-23T17:12:52.073Z,87.10
2022-11-23T17:15:20.010Z,87.30
2022-11-23T17:17:48.216Z,87.60
2022-11-23T17:20:15.527Z,87.80
2022-11-23T17:22:42.259Z,87.60
2022-11-23T17:25:14.408Z,87.50
2022-11-23T17:27:41.804Z,88.10
2022-11-23T17:30:14.483Z,87.90
2022-11-23T17:32:41.112Z,87.50
2022-11-23T17:35:08.033Z,87.70
2022-11-23T17:37:34.727Z,87.90
2022-11-23T17:40:01.463Z,88.00
2022-11-23T17:42:28.204Z,87.70
2022-11-23T17:44:54.848Z,88.50
2022-11-23T17:47:25.217Z,88.50
2022-11-23T17:49:52.182Z,87.90
2022-11-23T17:52:18.957Z,87.80
2022-11-23T17:54:45.743Z,87.90
2022-11-23T17:57:16.493Z,88.20
2022-11-23T17:59:43.304Z,88.30
2022-11-23T18:02:10.039Z,88.30
2022-11-23T18:04:36.693Z,88.20
2022-11-23T18:07:03.660Z,88.40
2022-11-23T18:09:30.751Z,88.80
2022-11-23T18:11:58.045Z,88.80
2022-11-23T18:14:24.666Z,88.80
2022-11-23T18:16:51.309Z,88.90
2022-11-23T18:19:17.955Z,89.20
2022-11-23T18:21:44.621Z,89.20
2022-11-23T18:24:11.284Z,89.40
2022-11-23T18:26:37.910Z,89.50
2022-11-23T18:29:04.607Z,89.50
2022-11-23T18:31:31.318Z,89.80
2022-11-23T18:33:57.981Z,89.70
2022-11-23T18:36:24.687Z,89.80
2022-11-23T18:38:51.317Z,89.70
2022-11-23T18:41:18.096Z,89.90
2022-11-23T18:43:45.021Z,89.70
2022-11-23T18:46:13.625Z,89.60
2022-11-23T18:48:40.449Z,89.40
2022-11-23T18:51:07.117Z,89.40
2022-11-23T18:53:33.845Z,89.00
2022-11-23T18:56:03.983Z,89.00
2022-11-23T18:58:38.059Z,89.00
2022-11-23T19:01:12.827Z,89.20
2022-11-23T19:03:40.788Z,89.70
2022-11-23T19:06:07.637Z,89.80
2022-11-23T19:08:39.045Z,89.90
2022-11-23T19:11:09.993Z,90.10
2022-11-23T19:13:37.235Z,90.10
2022-11-23T19:16:14.201Z,90.10
2022-11-23T19:18:40.934Z,90.40
2022-11-23T19:21:13.620Z,90.30
2022-11-23T19:23:40.410Z,90.20
2022-11-23T19:26:07.092Z,90.50
2022-11-23T19:28:33.995Z,90.20
2022-11-23T19:31:20.204Z,89.70
2022-11-23T19:33:47.662Z,89.20
2022-11-23T19:36:18.840Z,89.00
2022-11-23T19:38:45.711Z,88.90
2022-11-23T19:41:12.372Z,88.80
2022-11-23T19:43:38.996Z,89.40
2022-11-23T19:46:06.356Z,89.60
2022-11-23T19:48:33.533Z,89.70
2022-11-23T19:51:00.873Z,89.60
2022-11-23T19:53:30.957Z,89.90
2022-11-23T19:56:05.521Z,89.90
2022-11-23T19:58:32.710Z,89.90
2022-11-23T20:01:03.541Z,89.90
2022-11-23T20:03:30.449Z,90.20
2022-11-23T20:05:58.032Z,90.30
2022-11-23T20:08:24.716Z,90.50
2022-11-23T20:10:51.446Z,90.40
2022-11-23T20:13:18.196Z,90.50
2022-11-23T20:15:44.922Z,90.70
2022-11-23T20:18:11.685Z,90.80
2022-11-23T20:20:42.449Z,90.90
2022-11-23T20:23:09.658Z,90.50
2022-11-23T20:25:39.507Z,90.50
2022-11-23T20:28:06.229Z,90.20
2022-11-23T20:30:35.759Z,90.80
2022-11-23T20:33:02.529Z,90.10
2022-11-23T20:35:29.279Z,89.90
2022-11-23T20:37:56.203Z,90.40
2022-11-23T20:40:22.791Z,90.50
2022-11-23T20:42:49.473Z,90.00
2022-11-23T20:45:16.076Z,89.80
2022-11-23T20:47:42.825Z,90.00
2022-11-23T20:50:09.893Z,89.90
2022-11-23T20:52:37.160Z,90.30
2022-11-23T20:55:04.191Z,90.60
2022-11-23T20:57:30.863Z,90.40
2022-11-23T20:59:58.030Z,90.30
2022-11-23T21:02:24.624Z,90.20
2022-11-23T21:04:51.338Z,90.30
2022-11-23T21:07:18.057Z,90.70
2022-11-23T21:09:45.131Z,90.60
2022-11-23T21:12:14.223Z,90.80
2022-11-23T21:14:40.930Z,90.60
2022-11-23T21:17:07.525Z,90.50
2022-11-23T21:19:38.080Z,90.40
2022-11-23T21:22:11.931Z,90.10
2022-11-23T21:24:38.842Z,89.90
2022-11-23T21:27:06.281Z,89.80
2022-11-23T21:29:32.962Z,89.70
2022-11-23T21:31:59.635Z,89.70
2022-11-23T21:34:27.577Z,89.60
2022-11-23T21:36:55.023Z,89.70
2022-11-23T21:39:21.788Z,89.70
2022-11-23T21:41:52.511Z,89.80
2022-11-23T21:44:19.566Z,89.70
2022-11-23T21:46:46.407Z,89.80
2022-11-23T21:49:13.075Z,89.80
2022-11-23T21:51:39.907Z,89.60
2022-11-23T21:54:07.715Z,89.40
2022-11-23T21:56:34.344Z,89.30
2022-11-23T21:59:01.014Z,89.20
2022-11-23T22:01:31.614Z,89.30
2022-11-23T22:04:02.205Z,89.40
2022-11-23T22:06:29.076Z,89.60
2022-11-23T22:08:56.811Z,89.70
2022-11-23T22:11:25.080Z,89.70
2022-11-23T22:13:56.695Z,89.70
2022-11-23T22:16:27.266Z,89.60
2022-11-23T22:18:56.000Z,89.60
2022-11-23T22:21:25.561Z,89.50
2022-11-23T22:23:52.318Z,89.40
2022-11-23T22:26:19.408Z,89.70
2022-11-23T22:28:47.790Z,89.90
2022-11-23T22:31:16.398Z,90.10
2022-11-23T22:33:43.334Z,90.10
2022-11-23T22:36:15.103Z,89.90
2022-11-23T22:38:41.780Z,89.60
2022-11-23T22:41:16.957Z,89.50
2022-11-23T22:43:44.110Z,89.40
2022-11-23T22:46:12.240Z,89.40
2022-11-23T22:48:39.646Z,89.20
2022-11-23T22:51:06.602Z,89.00
2022-11-23T22:53:33.403Z,89.00
2022-11-23T22:56:01.188Z,88.90
2022-11-23T22:58:27.897Z,88.90
2022-11-23T23:00:54.589Z,88.70
2022-11-23T23:03:21.430Z,88.80
2022-11-23T23:05:57.793Z,88.90
2022-11-23T23:08:24.732Z,88.70
2022-11-23T23:10:51.444Z,88.60
2022-11-23T23:13:18.387Z,88.50
2022-11-23T23:15:45.144Z,88.20
2022-11-23T23:18:13.181Z,87.90
2022-11-23T23:20:40.042Z,87.80
2022-11-23T23:23:09.706Z,87.60
2022-11-23T23:25:36.372Z,87.50
2022-11-23T23:28:03.299Z,87.60
2022-11-23T23:30:29.944Z,87.50
2022-11-23T23:32:56.780Z,87.50
2022-11-23T23:35:23.440Z,87.60
2022-11-23T23:37:52.936Z,87.40
2022-11-23T23:40:19.720Z,87.40
2022-11-23T23:42:46.409Z,87.50
2022-11-23T23:45:13.129Z,87.40
2022-11-23T23:47:39.823Z,87.30
2022-11-23T23:50:07.217Z,87.00
2022-11-23T23:52:34.675Z,87.00
2022-11-23T23:55:01.340Z,87.00
2022-11-23T23:57:29.603Z,86.80
2022-11-23T23:59:56.252Z,86.80
